sensor_id;sensor_type;location;lat;lon;timestamp;pressure;altitude;pressure_sealevel;temperature;humidity
19114;BME280;9689;51.052;13.772;2022-10-03T00:04:30;100503.13;;;10.55;87.96
19114;BME280;9689;51.052;13.772;2022-10-03T00:09:49;100505.75;;;10.53;88.10
19114;BME280;9689;51.052;13.772;2022-10-03T00:15:00;100504.91;;;10.46;88.54
19114;BME280;9689;51.052;13.772;2022-10-03T00:20:10;100517.78;;;10.39;89.04
19114;BME280;9689;51.052;13.772;2022-10-03T00:25:28;100522.06;;;10.38;89.05
19114;BME280;9689;51.052;13.772;2022-10-03T00:30:48;100527.16;;;10.41;89.39
19114;BME280;9689;51.052;13.772;2022-10-03T00:36:02;100529.81;;;10.32;89.76
19114;BME280;9689;51.052;13.772;2022-10-03T00:41:40;100538.34;;;10.34;89.60
19114;BME280;9689;51.052;13.772;2022-10-03T00:47:15;100540.06;;;10.35;89.63
19114;BME280;9689;51.052;13.772;2022-10-03T00:52:41;100533.16;;;10.42;89.22
19114;BME280;9689;51.052;13.772;2022-10-03T00:58:09;100549.44;;;10.47;89.17
19114;BME280;9689;51.052;13.772;2022-10-03T01:03:35;100545.91;;;10.56;88.26
19114;BME280;9689;51.052;13.772;2022-10-03T01:08:56;100549.34;;;10.56;88.79
19114;BME280;9689;51.052;13.772;2022-10-03T01:14:15;100551.00;;;10.65;88.10
19114;BME280;9689;51.052;13.772;2022-10-03T01:19:34;100546.72;;;10.66;88.01
19114;BME280;9689;51.052;13.772;2022-10-03T01:24:50;100544.13;;;10.67;88.10
19114;BME280;9689;51.052;13.772;2022-10-03T01:29:57;100538.13;;;10.71;88.15
19114;BME280;9689;51.052;13.772;2022-10-03T01:35:24;100550.19;;;10.58;89.91
19114;BME280;9689;51.052;13.772;2022-10-03T01:40:31;100545.97;;;10.53;89.59
19114;BME280;9689;51.052;13.772;2022-10-03T01:45:45;100541.69;;;10.52;89.44
19114;BME280;9689;51.052;13.772;2022-10-03T01:50:53;100543.41;;;10.51;89.74
19114;BME280;9689;51.052;13.772;2022-10-03T01:56:03;100539.09;;;10.58;89.14
19114;BME280;9689;51.052;13.772;2022-10-03T02:01:12;100534.78;;;10.63;89.12
19114;BME280;9689;51.052;13.772;2022-10-03T02:06:20;100550.22;;;10.52;89.91
19114;BME280;9689;51.052;13.772;2022-10-03T02:11:31;100548.53;;;10.51;90.12
19114;BME280;9689;51.052;13.772;2022-10-03T02:16:39;100561.38;;;10.53;89.88
19114;BME280;9689;51.052;13.772;2022-10-03T02:21:46;100565.72;;;10.43;91.37
19114;BME280;9689;51.052;13.772;2022-10-03T02:27:35;100574.31;;;10.28;93.25
19114;BME280;9689;51.052;13.772;2022-10-03T02:38:36;100584.66;;;10.18;94.23
19114;BME280;9689;51.052;13.772;2022-10-03T02:44:00;100579.50;;;10.26;93.81
19114;BME280;9689;51.052;13.772;2022-10-03T02:49:31;100590.59;;;10.27;93.66
19114;BME280;9689;51.052;13.772;2022-10-03T02:55:11;100590.59;;;10.28;93.73
19114;BME280;9689;51.052;13.772;2022-10-03T03:00:18;100582.00;;;10.37;92.86
19114;BME280;9689;51.052;13.772;2022-10-03T03:05:37;100587.09;;;10.45;92.55
19114;BME280;9689;51.052;13.772;2022-10-03T03:11:03;100602.44;;;10.54;91.61
19114;BME280;9689;51.052;13.772;2022-10-03T03:16:29;100605.81;;;10.59;90.74
19114;BME280;9689;51.052;13.772;2022-10-03T03:21:40;100606.69;;;10.63;90.32
19114;BME280;9689;51.052;13.772;2022-10-03T03:26:53;100601.53;;;10.63;90.45
19114;BME280;9689;51.052;13.772;2022-10-03T03:32:02;100615.19;;;10.68;89.21
19114;BME280;9689;51.052;13.772;2022-10-03T03:37:10;100612.66;;;10.64;89.32
19114;BME280;9689;51.052;13.772;2022-10-03T03:42:35;100628.06;;;10.62;89.39
19114;BME280;9689;51.052;13.772;2022-10-03T03:47:54;100624.66;;;10.60;89.37
19114;BME280;9689;51.052;13.772;2022-10-03T03:53:13;100627.22;;;10.62;88.75
19114;BME280;9689;51.052;13.772;2022-10-03T03:58:29;100629.00;;;10.53;89.24
19114;BME280;9689;51.052;13.772;2022-10-03T04:03:42;100615.25;;;10.56;89.22
19114;BME280;9689;51.052;13.772;2022-10-03T04:09:02;100629.84;;;10.54;88.70
19114;BME280;9689;51.052;13.772;2022-10-03T04:19:45;100624.69;;;10.57;88.83
19114;BME280;9689;51.052;13.772;2022-10-03T04:25:06;100642.63;;;10.62;88.74
19114;BME280;9689;51.052;13.772;2022-10-03T04:30:12;100630.66;;;10.60;89.18
19114;BME280;9689;51.052;13.772;2022-10-03T04:35:29;100629.84;;;10.54;89.01
19114;BME280;9689;51.052;13.772;2022-10-03T04:40:42;100640.97;;;10.53;89.09
19114;BME280;9689;51.052;13.772;2022-10-03T04:45:59;100636.69;;;10.52;89.93
19114;BME280;9689;51.052;13.772;2022-10-03T04:51:17;100645.25;;;10.54;89.78
19114;BME280;9689;51.052;13.772;2022-10-03T04:56:35;100637.59;;;10.43;90.51
19114;BME280;9689;51.052;13.772;2022-10-03T05:01:45;100648.72;;;10.50;89.97
19114;BME280;9689;51.052;13.772;2022-10-03T05:06:58;100644.44;;;10.45;89.65
19114;BME280;9689;51.052;13.772;2022-10-03T05:12:06;100652.13;;;10.44;89.98
19114;BME280;9689;51.052;13.772;2022-10-03T05:17:15;100635.00;;;10.41;90.50
19114;BME280;9689;51.052;13.772;2022-10-03T05:22:26;100657.31;;;10.33;91.55
19114;BME280;9689;51.052;13.772;2022-10-03T05:27:36;100659.94;;;10.25;93.17
19114;BME280;9689;51.052;13.772;2022-10-03T05:32:45;100668.47;;;10.19;93.85
19114;BME280;9689;51.052;13.772;2022-10-03T05:38:03;100670.19;;;10.25;93.75
19114;BME280;9689;51.052;13.772;2022-10-03T05:43:24;100677.03;;;10.26;93.44
19114;BME280;9689;51.052;13.772;2022-10-03T05:48:42;100683.88;;;10.27;94.05
19114;BME280;9689;51.052;13.772;2022-10-03T05:54:16;100691.59;;;10.21;94.17
19114;BME280;9689;51.052;13.772;2022-10-03T05:59:35;100698.38;;;10.36;93.44
19114;BME280;9689;51.052;13.772;2022-10-03T06:05:15;100703.50;;;10.42;92.69
19114;BME280;9689;51.052;13.772;2022-10-03T06:10:42;100715.47;;;10.46;92.37
19114;BME280;9689;51.052;13.772;2022-10-03T06:15:56;100719.75;;;10.47;92.33
19114;BME280;9689;51.052;13.772;2022-10-03T06:21:37;100731.72;;;10.53;92.17
19114;BME280;9689;51.052;13.772;2022-10-03T06:27:10;100711.16;;;10.52;91.67
19114;BME280;9689;51.052;13.772;2022-10-03T06:38:28;100735.84;;;10.84;89.43
19114;BME280;9689;51.052;13.772;2022-10-03T06:43:43;100742.69;;;10.82;89.49
19114;BME280;9689;51.052;13.772;2022-10-03T06:49:27;100742.66;;;10.91;89.30
19114;BME280;9689;51.052;13.772;2022-10-03T06:55:00;100753.81;;;10.88;89.02
19114;BME280;9689;51.052;13.772;2022-10-03T07:00:11;100755.47;;;10.94;88.18
19114;BME280;9689;51.052;13.772;2022-10-03T07:05:46;100752.88;;;11.00;88.63
19114;BME280;9689;51.052;13.772;2022-10-03T07:11:05;100754.47;;;11.17;87.52
19114;BME280;9689;51.052;13.772;2022-10-03T07:16:34;100766.47;;;11.17;86.59
19114;BME280;9689;51.052;13.772;2022-10-03T07:22:19;100749.41;;;11.08;87.32
19114;BME280;9689;51.052;13.772;2022-10-03T07:27:39;100761.38;;;11.09;87.59
19114;BME280;9689;51.052;13.772;2022-10-03T07:38:51;100777.06;;;10.59;92.81
19114;BME280;9689;51.052;13.772;2022-10-03T07:44:22;100780.53;;;10.33;95.14
19114;BME280;9689;51.052;13.772;2022-10-03T07:49:45;100783.97;;;10.44;95.75
19114;BME280;9689;51.052;13.772;2022-10-03T07:55:17;100795.00;;;10.62;94.32
19114;BME280;9689;51.052;13.772;2022-10-03T08:00:25;100790.63;;;10.83;93.29
19114;BME280;9689;51.052;13.772;2022-10-03T08:05:44;100789.72;;;10.99;92.19
19114;BME280;9689;51.052;13.772;2022-10-03T08:16:31;100800.88;;;10.89;92.74
19114;BME280;9689;51.052;13.772;2022-10-03T08:21:52;100799.03;;;11.16;91.45
19114;BME280;9689;51.052;13.772;2022-10-03T08:27:16;100809.28;;;11.25;90.88
19114;BME280;9689;51.052;13.772;2022-10-03T08:32:50;100805.72;;;11.39;89.71
19114;BME280;9689;51.052;13.772;2022-10-03T08:38:18;100808.19;;;11.56;87.27
19114;BME280;9689;51.052;13.772;2022-10-03T08:49:19;100815.72;;;11.79;84.67
19114;BME280;9689;51.052;13.772;2022-10-03T08:54:44;100823.44;;;11.82;84.41
19114;BME280;9689;51.052;13.772;2022-10-03T09:00:12;100819.16;;;11.78;83.57
19114;BME280;9689;51.052;13.772;2022-10-03T09:05:47;100828.59;;;11.82;81.48
19114;BME280;9689;51.052;13.772;2022-10-03T09:16:46;100824.03;;;12.13;79.01
19114;BME280;9689;51.052;13.772;2022-10-03T09:22:31;100811.97;;;12.19;78.84
19114;BME280;9689;51.052;13.772;2022-10-03T09:38:52;100815.28;;;12.32;76.71
19114;BME280;9689;51.052;13.772;2022-10-03T09:44:12;100811.97;;;12.19;77.13
19114;BME280;9689;51.052;13.772;2022-10-03T09:49:32;100816.97;;;12.33;75.12
19114;BME280;9689;51.052;13.772;2022-10-03T09:54:55;100809.31;;;13.01;73.15
19114;BME280;9689;51.052;13.772;2022-10-03T10:00:21;100814.47;;;13.01;70.40
19114;BME280;9689;51.052;13.772;2022-10-03T10:05:42;100834.44;;;12.83;70.04
19114;BME280;9689;51.052;13.772;2022-10-03T10:11:02;100822.56;;;12.71;71.04
19114;BME280;9689;51.052;13.772;2022-10-03T10:16:31;100823.44;;;12.72;71.96
19114;BME280;9689;51.052;13.772;2022-10-03T10:21:56;100823.50;;;12.66;70.83
19114;BME280;9689;51.052;13.772;2022-10-03T10:27:24;100842.34;;;12.71;69.99
19114;BME280;9689;51.052;13.772;2022-10-03T10:38:35;100812.72;;;13.03;69.44
19114;BME280;9689;51.052;13.772;2022-10-03T10:55:24;100817.06;;;12.98;69.14
19114;BME280;9689;51.052;13.772;2022-10-03T11:01:01;100815.75;;;13.33;67.39
19114;BME280;9689;51.052;13.772;2022-10-03T11:06:51;100809.47;;;13.51;67.70
19114;BME280;9689;51.052;13.772;2022-10-03T11:17:59;100812.06;;;13.51;66.26
19114;BME280;9689;51.052;13.772;2022-10-03T11:35:04;100814.28;;;13.75;65.31
19114;BME280;9689;51.052;13.772;2022-10-03T11:40:24;100840.94;;;13.73;64.46
19114;BME280;9689;51.052;13.772;2022-10-03T11:45:29;100821.94;;;13.78;64.90
19114;BME280;9689;51.052;13.772;2022-10-03T11:50:44;100822.78;;;13.80;64.97
19114;BME280;9689;51.052;13.772;2022-10-03T11:55:50;100816.34;;;13.52;65.40
19114;BME280;9689;51.052;13.772;2022-10-03T12:00:58;100828.44;;;13.47;66.66
19114;BME280;9689;51.052;13.772;2022-10-03T12:06:10;100813.41;;;13.72;66.85
19114;BME280;9689;51.052;13.772;2022-10-03T12:11:36;100823.66;;;13.77;67.14
19114;BME280;9689;51.052;13.772;2022-10-03T12:17:09;100814.72;;;13.97;65.91
19114;BME280;9689;51.052;13.772;2022-10-03T12:22:35;100824.31;;;13.92;64.23
19114;BME280;9689;51.052;13.772;2022-10-03T12:27:45;100829.19;;;14.07;63.18
19114;BME280;9689;51.052;13.772;2022-10-03T12:33:02;100810.16;;;14.13;64.34
19114;BME280;9689;51.052;13.772;2022-10-03T12:38:39;100818.06;;;14.04;64.88
19114;BME280;9689;51.052;13.772;2022-10-03T12:44:00;100813.06;;;13.94;65.33
19114;BME280;9689;51.052;13.772;2022-10-03T12:49:12;100835.53;;;13.89;65.28
19114;BME280;9689;51.052;13.772;2022-10-03T12:54:27;100815.00;;;13.83;66.46
19114;BME280;9689;51.052;13.772;2022-10-03T12:59:36;100832.38;;;13.71;66.28
19114;BME280;9689;51.052;13.772;2022-10-03T13:04:43;100830.75;;;13.64;67.13
19114;BME280;9689;51.052;13.772;2022-10-03T13:09:57;100827.72;;;13.92;67.61
19114;BME280;9689;51.052;13.772;2022-10-03T13:20:49;100820.78;;;13.96;66.56
19114;BME280;9689;51.052;13.772;2022-10-03T13:26:05;100823.38;;;13.94;65.61
19114;BME280;9689;51.052;13.772;2022-10-03T13:31:18;100818.19;;;13.97;64.84
19114;BME280;9689;51.052;13.772;2022-10-03T13:36:23;100804.75;;;14.25;64.91
19114;BME280;9689;51.052;13.772;2022-10-03T13:41:37;100795.19;;;14.31;64.36
19114;BME280;9689;51.052;13.772;2022-10-03T13:46:44;100792.22;;;14.51;64.30
19114;BME280;9689;51.052;13.772;2022-10-03T13:51:56;100796.22;;;14.66;64.55
19114;BME280;9689;51.052;13.772;2022-10-03T13:57:07;100789.00;;;14.39;65.64
19114;BME280;9689;51.052;13.772;2022-10-03T14:02:38;100803.41;;;14.06;66.81
19114;BME280;9689;51.052;13.772;2022-10-03T14:07:46;100805.56;;;13.80;68.26
19114;BME280;9689;51.052;13.772;2022-10-03T14:13:03;100798.78;;;13.75;69.88
19114;BME280;9689;51.052;13.772;2022-10-03T14:18:18;100814.81;;;13.36;72.02
19114;BME280;9689;51.052;13.772;2022-10-03T14:23:26;100826.16;;;13.27;72.66
19114;BME280;9689;51.052;13.772;2022-10-03T14:28:38;100813.19;;;13.31;73.08
19114;BME280;9689;51.052;13.772;2022-10-03T14:33:45;100809.00;;;13.23;73.57
19114;BME280;9689;51.052;13.772;2022-10-03T14:44:35;100799.59;;;13.77;70.38
19114;BME280;9689;51.052;13.772;2022-10-03T14:49:39;100802.78;;;13.93;69.65
19114;BME280;9689;51.052;13.772;2022-10-03T14:55:05;100805.16;;;14.05;68.58
19114;BME280;9689;51.052;13.772;2022-10-03T15:00:22;100806.09;;;13.99;67.17
19114;BME280;9689;51.052;13.772;2022-10-03T15:05:32;100795.81;;;13.96;66.24
19114;BME280;9689;51.052;13.772;2022-10-03T15:10:33;100806.19;;;13.93;66.58
19114;BME280;9689;51.052;13.772;2022-10-03T15:15:38;100802.84;;;13.88;67.07
19114;BME280;9689;51.052;13.772;2022-10-03T15:20:42;100810.59;;;13.88;67.15
19114;BME280;9689;51.052;13.772;2022-10-03T15:25:46;100803.69;;;13.90;66.92
19114;BME280;9689;51.052;13.772;2022-10-03T15:30:54;100810.59;;;13.88;67.13
19114;BME280;9689;51.052;13.772;2022-10-03T15:36:02;100801.25;;;13.81;66.90
19114;BME280;9689;51.052;13.772;2022-10-03T15:41:08;100799.47;;;13.84;66.68
19114;BME280;9689;51.052;13.772;2022-10-03T15:46:28;100790.94;;;13.81;67.44
19114;BME280;9689;51.052;13.772;2022-10-03T15:51:34;100799.69;;;13.70;67.96
19114;BME280;9689;51.052;13.772;2022-10-03T15:56:38;100787.69;;;13.69;68.01
19114;BME280;9689;51.052;13.772;2022-10-03T16:01:44;100782.56;;;13.66;68.22
19114;BME280;9689;51.052;13.772;2022-10-03T16:06:54;100789.31;;;13.73;68.57
19114;BME280;9689;51.052;13.772;2022-10-03T16:12:16;100786.97;;;13.59;69.28
19114;BME280;9689;51.052;13.772;2022-10-03T16:17:28;100794.81;;;13.52;69.81
19114;BME280;9689;51.052;13.772;2022-10-03T16:22:36;100791.50;;;13.47;69.58
19114;BME280;9689;51.052;13.772;2022-10-03T16:27:51;100788.13;;;13.38;71.09
19114;BME280;9689;51.052;13.772;2022-10-03T16:33:01;100797.63;;;13.36;70.63
19114;BME280;9689;51.052;13.772;2022-10-03T16:38:06;100793.53;;;13.21;71.72
19114;BME280;9689;51.052;13.772;2022-10-03T16:43:14;100796.97;;;13.22;71.75
19114;BME280;9689;51.052;13.772;2022-10-03T16:48:22;100797.81;;;13.24;71.75
19114;BME280;9689;51.052;13.772;2022-10-03T16:53:42;100796.97;;;13.22;71.61
19114;BME280;9689;51.052;13.772;2022-10-03T16:58:48;100809.06;;;13.19;72.26
19114;BME280;9689;51.052;13.772;2022-10-03T17:03:55;100812.47;;;13.20;72.29
19114;BME280;9689;51.052;13.772;2022-10-03T17:09:00;100813.59;;;13.00;74.13
19114;BME280;9689;51.052;13.772;2022-10-03T17:14:06;100809.81;;;12.60;78.24
19114;BME280;9689;51.052;13.772;2022-10-03T17:19:17;100808.28;;;12.44;78.81
19114;BME280;9689;51.052;13.772;2022-10-03T17:24:26;100806.59;;;12.43;78.21
19114;BME280;9689;51.052;13.772;2022-10-03T17:29:33;100808.94;;;12.61;78.02
19114;BME280;9689;51.052;13.772;2022-10-03T17:34:40;100811.41;;;12.71;76.96
19114;BME280;9689;51.052;13.772;2022-10-03T17:39:53;100816.47;;;12.77;75.72
19114;BME280;9689;51.052;13.772;2022-10-03T17:44:58;100821.53;;;12.83;75.83
19114;BME280;9689;51.052;13.772;2022-10-03T17:50:06;100819.75;;;12.91;74.80
19114;BME280;9689;51.052;13.772;2022-10-03T17:57:14;100820.69;;;12.84;74.73
19114;BME280;9689;51.052;13.772;2022-10-03T18:07:35;100818.88;;;12.91;75.16
19114;BME280;9689;51.052;13.772;2022-10-03T18:12:40;100820.59;;;12.92;75.39
19114;BME280;9689;51.052;13.772;2022-10-03T18:17:57;100826.69;;;12.86;76.03
19114;BME280;9689;51.052;13.772;2022-10-03T18:23:23;100825.03;;;12.81;76.34
19114;BME280;9689;51.052;13.772;2022-10-03T18:29:20;100827.66;;;12.76;77.67
19114;BME280;9689;51.052;13.772;2022-10-03T18:35:41;100828.84;;;12.50;80.97
19114;BME280;9689;51.052;13.772;2022-10-03T18:40:48;100824.63;;;12.41;81.98
19114;BME280;9689;51.052;13.772;2022-10-03T18:45:52;100829.84;;;12.35;83.86
19114;BME280;9689;51.052;13.772;2022-10-03T18:50:59;100823.06;;;12.24;84.89
19114;BME280;9689;51.052;13.772;2022-10-03T18:56:08;100830.81;;;12.23;85.60
19114;BME280;9689;51.052;13.772;2022-10-03T19:01:15;100818.72;;;12.28;85.27
19114;BME280;9689;51.052;13.772;2022-10-03T19:06:22;100818.78;;;12.25;85.08
19114;BME280;9689;51.052;13.772;2022-10-03T19:11:28;100812.00;;;12.15;85.94
19114;BME280;9689;51.052;13.772;2022-10-03T19:16:40;100814.53;;;12.21;85.73
19114;BME280;9689;51.052;13.772;2022-10-03T19:21:46;100812.00;;;12.15;86.21
19114;BME280;9689;51.052;13.772;2022-10-03T19:26:50;100815.44;;;12.14;85.68
19114;BME280;9689;51.052;13.772;2022-10-03T19:31:59;100816.28;;;12.17;85.55
19114;BME280;9689;51.052;13.772;2022-10-03T19:37:06;100817.16;;;12.15;85.93
19114;BME280;9689;51.052;13.772;2022-10-03T19:42:25;100815.44;;;12.14;85.08
19114;BME280;9689;51.052;13.772;2022-10-03T19:47:30;100828.31;;;12.17;85.09
19114;BME280;9689;51.052;13.772;2022-10-03T19:52:35;100825.78;;;12.10;85.46
19114;BME280;9689;51.052;13.772;2022-10-03T19:57:42;100820.53;;;12.20;84.67
19114;BME280;9689;51.052;13.772;2022-10-03T20:02:51;100811.13;;;12.17;84.94
19114;BME280;9689;51.052;13.772;2022-10-03T20:07:59;100812.00;;;12.15;84.37
19114;BME280;9689;51.052;13.772;2022-10-03T20:13:00;100813.72;;;12.16;84.35
19114;BME280;9689;51.052;13.772;2022-10-03T20:18:03;100815.50;;;12.10;85.47
19114;BME280;9689;51.052;13.772;2022-10-03T20:23:12;100813.75;;;12.13;84.91
19114;BME280;9689;51.052;13.772;2022-10-03T20:28:18;100805.97;;;12.19;84.57
19114;BME280;9689;51.052;13.772;2022-10-03T20:33:21;100807.66;;;12.20;84.94
19114;BME280;9689;51.052;13.772;2022-10-03T20:38:33;100802.56;;;12.17;84.37
19114;BME280;9689;51.052;13.772;2022-10-03T20:43:40;100801.63;;;12.24;84.35
19114;BME280;9689;51.052;13.772;2022-10-03T20:48:56;100812.75;;;12.29;84.17
19114;BME280;9689;51.052;13.772;2022-10-03T20:54:02;100809.25;;;12.32;83.05
19114;BME280;9689;51.052;13.772;2022-10-03T20:59:07;100804.91;;;12.37;82.82
19114;BME280;9689;51.052;13.772;2022-10-03T21:04:14;100816.09;;;12.36;82.83
19114;BME280;9689;51.052;13.772;2022-10-03T21:09:31;100805.78;;;12.37;83.25
19114;BME280;9689;51.052;13.772;2022-10-03T21:14:34;100810.94;;;12.37;83.37
19114;BME280;9689;51.052;13.772;2022-10-03T21:19:42;100800.59;;;12.39;84.00
19114;BME280;9689;51.052;13.772;2022-10-03T21:24:51;100803.19;;;12.37;82.88
19114;BME280;9689;51.052;13.772;2022-10-03T21:29:55;100798.88;;;12.40;83.62
19114;BME280;9689;51.052;13.772;2022-10-03T21:35:01;100803.19;;;12.37;83.93
19114;BME280;9689;51.052;13.772;2022-10-03T21:40:20;100803.22;;;12.34;83.94
19114;BME280;9689;51.052;13.772;2022-10-03T21:45:31;100800.63;;;12.37;84.21
19114;BME280;9689;51.052;13.772;2022-10-03T21:50:49;100800.66;;;12.34;83.80
19114;BME280;9689;51.052;13.772;2022-10-03T21:56:20;100798.06;;;12.36;84.43
19114;BME280;9689;51.052;13.772;2022-10-03T22:01:30;100788.63;;;12.35;83.91
19114;BME280;9689;51.052;13.772;2022-10-03T22:06:35;100797.25;;;12.32;83.61
19114;BME280;9689;51.052;13.772;2022-10-03T22:11:43;100797.28;;;12.28;84.46
19114;BME280;9689;51.052;13.772;2022-10-03T22:16:51;100792.97;;;12.28;84.10
19114;BME280;9689;51.052;13.772;2022-10-03T22:22:16;100796.50;;;12.21;84.34
19114;BME280;9689;51.052;13.772;2022-10-03T22:27:24;100798.13;;;12.30;84.38
19114;BME280;9689;51.052;13.772;2022-10-03T22:32:31;100794.72;;;12.29;83.94
19114;BME280;9689;51.052;13.772;2022-10-03T22:37:34;100787.00;;;12.24;84.07
19114;BME280;9689;51.052;13.772;2022-10-03T22:42:39;100791.28;;;12.27;83.30
19114;BME280;9689;51.052;13.772;2022-10-03T22:47:44;100788.75;;;12.26;83.57
19114;BME280;9689;51.052;13.772;2022-10-03T22:52:48;100784.47;;;12.23;83.81
19114;BME280;9689;51.052;13.772;2022-10-03T22:57:52;100784.38;;;12.31;83.98
19114;BME280;9689;51.052;13.772;2022-10-03T23:02:58;100784.41;;;12.29;83.77
19114;BME280;9689;51.052;13.772;2022-10-03T23:08:09;100787.81;;;12.31;83.63
19114;BME280;9689;51.052;13.772;2022-10-03T23:13:23;100784.38;;;12.31;83.27
19114;BME280;9689;51.052;13.772;2022-10-03T23:18:38;100786.13;;;12.30;83.23
19114;BME280;9689;51.052;13.772;2022-10-03T23:23:54;100782.69;;;12.28;83.36
19114;BME280;9689;51.052;13.772;2022-10-03T23:29:02;100781.16;;;12.12;84.33
19114;BME280;9689;51.052;13.772;2022-10-03T23:34:07;100782.09;;;12.04;85.90
19114;BME280;9689;51.052;13.772;2022-10-03T23:39:29;100787.25;;;11.98;86.95
19114;BME280;9689;51.052;13.772;2022-10-03T23:44:39;100785.56;;;11.97;86.20
19114;BME280;9689;51.052;13.772;2022-10-03T23:49:49;100788.97;;;11.97;85.69
19114;BME280;9689;51.052;13.772;2022-10-03T23:54:52;100792.47;;;11.93;86.68
19114;BME280;9689;51.052;13.772;2022-10-03T23:59:56;100792.56;;;11.84;88.39
